sensor_id;sensor_type;location;lat;lon;timestamp;temperature;humidity
20446;DHT22;10382;49.140;9.234;2023-06-14T00:01:07;18.80;71.50
20446;DHT22;10382;49.140;9.234;2023-06-14T00:03:35;18.80;71.00
20446;DHT22;10382;49.140;9.234;2023-06-14T00:06:03;18.80;71.00
20446;DHT22;10382;49.140;9.234;2023-06-14T00:08:30;18.70;71.40
20446;DHT22;10382;49.140;9.234;2023-06-14T00:10:57;18.70;71.70
20446;DHT22;10382;49.140;9.234;2023-06-14T00:13:24;18.70;71.80
20446;DHT22;10382;49.140;9.234;2023-06-14T00:15:50;18.60;71.90
20446;DHT22;10382;49.140;9.234;2023-06-14T00:18:20;18.50;72.10
20446;DHT22;10382;49.140;9.234;2023-06-14T00:20:50;18.50;72.40
20446;DHT22;10382;49.140;9.234;2023-06-14T00:23:18;18.40;72.50
20446;DHT22;10382;49.140;9.234;2023-06-14T00:25:46;18.30;72.80
20446;DHT22;10382;49.140;9.234;2023-06-14T00:28:13;18.40;73.10
20446;DHT22;10382;49.140;9.234;2023-06-14T00:30:40;18.30;73.30
20446;DHT22;10382;49.140;9.234;2023-06-14T00:33:07;18.20;73.50
20446;DHT22;10382;49.140;9.234;2023-06-14T00:35:34;18.10;73.50
20446;DHT22;10382;49.140;9.234;2023-06-14T00:38:01;18.10;73.60
20446;DHT22;10382;49.140;9.234;2023-06-14T00:40:29;18.10;74.00
20446;DHT22;10382;49.140;9.234;2023-06-14T00:42:56;18.10;74.00
20446;DHT22;10382;49.140;9.234;2023-06-14T00:45:23;18.00;73.80
20446;DHT22;10382;49.140;9.234;2023-06-14T00:47:50;18.00;74.20
20446;DHT22;10382;49.140;9.234;2023-06-14T00:50:21;17.90;74.30
20446;DHT22;10382;49.140;9.234;2023-06-14T00:52:48;18.00;74.40
20446;DHT22;10382;49.140;9.234;2023-06-14T00:55:16;18.00;74.40
20446;DHT22;10382;49.140;9.234;2023-06-14T00:57:44;18.00;74.50
20446;DHT22;10382;49.140;9.234;2023-06-14T01:00:12;18.00;74.70
20446;DHT22;10382;49.140;9.234;2023-06-14T01:02:40;18.00;74.70
20446;DHT22;10382;49.140;9.234;2023-06-14T01:05:08;17.90;74.60
20446;DHT22;10382;49.140;9.234;2023-06-14T01:07:43;17.90;74.60
20446;DHT22;10382;49.140;9.234;2023-06-14T01:10:26;18.00;74.80
20446;DHT22;10382;49.140;9.234;2023-06-14T01:13:01;18.00;75.00
20446;DHT22;10382;49.140;9.234;2023-06-14T01:15:31;18.00;74.80
20446;DHT22;10382;49.140;9.234;2023-06-14T01:17:58;18.10;74.50
20446;DHT22;10382;49.140;9.234;2023-06-14T01:20:29;18.30;74.30
20446;DHT22;10382;49.140;9.234;2023-06-14T01:22:58;18.40;74.40
20446;DHT22;10382;49.140;9.234;2023-06-14T01:25:25;18.40;73.90
20446;DHT22;10382;49.140;9.234;2023-06-14T01:27:55;18.50;73.50
20446;DHT22;10382;49.140;9.234;2023-06-14T01:30:24;18.60;73.30
20446;DHT22;10382;49.140;9.234;2023-06-14T01:32:53;18.60;73.60
20446;DHT22;10382;49.140;9.234;2023-06-14T01:35:21;18.60;73.70
20446;DHT22;10382;49.140;9.234;2023-06-14T01:37:48;18.70;74.10
20446;DHT22;10382;49.140;9.234;2023-06-14T01:40:19;18.60;74.20
20446;DHT22;10382;49.140;9.234;2023-06-14T01:42:48;18.60;74.50
20446;DHT22;10382;49.140;9.234;2023-06-14T01:45:16;18.60;75.00
20446;DHT22;10382;49.140;9.234;2023-06-14T01:47:45;18.50;75.10
20446;DHT22;10382;49.140;9.234;2023-06-14T01:50:13;18.50;75.40
20446;DHT22;10382;49.140;9.234;2023-06-14T01:52:40;18.50;75.90
20446;DHT22;10382;49.140;9.234;2023-06-14T01:55:07;18.50;76.40
20446;DHT22;10382;49.140;9.234;2023-06-14T01:57:36;18.40;76.80
20446;DHT22;10382;49.140;9.234;2023-06-14T02:00:03;18.40;76.70
20446;DHT22;10382;49.140;9.234;2023-06-14T02:02:31;18.40;76.80
20446;DHT22;10382;49.140;9.234;2023-06-14T02:04:58;18.30;77.00
20446;DHT22;10382;49.140;9.234;2023-06-14T02:07:25;18.30;77.10
20446;DHT22;10382;49.140;9.234;2023-06-14T02:09:52;18.30;77.20
20446;DHT22;10382;49.140;9.234;2023-06-14T02:12:19;18.30;77.60
20446;DHT22;10382;49.140;9.234;2023-06-14T02:14:47;18.30;77.40
20446;DHT22;10382;49.140;9.234;2023-06-14T02:17:14;18.40;77.40
20446;DHT22;10382;49.140;9.234;2023-06-14T02:19:41;18.40;77.40
20446;DHT22;10382;49.140;9.234;2023-06-14T02:22:08;18.40;77.30
20446;DHT22;10382;49.140;9.234;2023-06-14T02:24:35;18.40;77.20
20446;DHT22;10382;49.140;9.234;2023-06-14T02:27:03;18.40;77.10
20446;DHT22;10382;49.140;9.234;2023-06-14T02:29:29;18.50;77.40
20446;DHT22;10382;49.140;9.234;2023-06-14T02:31:58;18.50;77.40
20446;DHT22;10382;49.140;9.234;2023-06-14T02:34:24;18.50;77.40
20446;DHT22;10382;49.140;9.234;2023-06-14T02:36:52;18.50;77.50
20446;DHT22;10382;49.140;9.234;2023-06-14T02:39:19;18.50;77.50
20446;DHT22;10382;49.140;9.234;2023-06-14T02:41:48;18.50;77.40
20446;DHT22;10382;49.140;9.234;2023-06-14T02:44:17;18.50;77.80
20446;DHT22;10382;49.140;9.234;2023-06-14T02:46:43;18.40;78.00
20446;DHT22;10382;49.140;9.234;2023-06-14T02:49:12;18.50;78.80
20446;DHT22;10382;49.140;9.234;2023-06-14T02:51:39;18.30;78.80
20446;DHT22;10382;49.140;9.234;2023-06-14T02:54:06;18.20;79.20
20446;DHT22;10382;49.140;9.234;2023-06-14T02:56:33;18.20;79.60
20446;DHT22;10382;49.140;9.234;2023-06-14T02:58:59;18.10;80.20
20446;DHT22;10382;49.140;9.234;2023-06-14T03:01:27;18.10;80.30
20446;DHT22;10382;49.140;9.234;2023-06-14T03:04:00;18.10;80.80
20446;DHT22;10382;49.140;9.234;2023-06-14T03:06:28;18.10;81.00
20446;DHT22;10382;49.140;9.234;2023-06-14T03:08:56;18.10;81.50
20446;DHT22;10382;49.140;9.234;2023-06-14T03:11:25;18.10;81.70
20446;DHT22;10382;49.140;9.234;2023-06-14T03:13:52;18.00;82.10
20446;DHT22;10382;49.140;9.234;2023-06-14T03:16:20;18.00;82.30
20446;DHT22;10382;49.140;9.234;2023-06-14T03:18:50;18.10;82.70
20446;DHT22;10382;49.140;9.234;2023-06-14T03:21:17;18.00;83.00
20446;DHT22;10382;49.140;9.234;2023-06-14T03:23:46;18.10;83.50
20446;DHT22;10382;49.140;9.234;2023-06-14T03:26:13;18.10;83.90
20446;DHT22;10382;49.140;9.234;2023-06-14T03:28:40;18.00;84.40
20446;DHT22;10382;49.140;9.234;2023-06-14T03:31:07;18.00;84.90
20446;DHT22;10382;49.140;9.234;2023-06-14T03:33:34;17.90;85.40
20446;DHT22;10382;49.140;9.234;2023-06-14T03:36:02;17.90;85.80
20446;DHT22;10382;49.140;9.234;2023-06-14T03:38:29;17.80;86.30
20446;DHT22;10382;49.140;9.234;2023-06-14T03:40:57;17.80;86.70
20446;DHT22;10382;49.140;9.234;2023-06-14T03:43:24;17.80;87.20
20446;DHT22;10382;49.140;9.234;2023-06-14T03:45:51;17.80;87.70
20446;DHT22;10382;49.140;9.234;2023-06-14T03:48:18;17.80;87.90
20446;DHT22;10382;49.140;9.234;2023-06-14T03:50:45;17.90;88.20
20446;DHT22;10382;49.140;9.234;2023-06-14T03:53:12;17.90;88.40
20446;DHT22;10382;49.140;9.234;2023-06-14T03:55:39;17.90;89.00
20446;DHT22;10382;49.140;9.234;2023-06-14T03:58:08;17.90;89.40
20446;DHT22;10382;49.140;9.234;2023-06-14T04:00:36;17.80;90.00
20446;DHT22;10382;49.140;9.234;2023-06-14T04:03:03;17.70;90.20
20446;DHT22;10382;49.140;9.234;2023-06-14T04:05:31;17.80;90.70
20446;DHT22;10382;49.140;9.234;2023-06-14T04:07:58;17.80;90.80
20446;DHT22;10382;49.140;9.234;2023-06-14T04:10:26;17.80;91.30
20446;DHT22;10382;49.140;9.234;2023-06-14T04:12:53;17.70;91.50
20446;DHT22;10382;49.140;9.234;2023-06-14T04:15:21;17.70;91.60
20446;DHT22;10382;49.140;9.234;2023-06-14T04:17:48;17.50;92.30
20446;DHT22;10382;49.140;9.234;2023-06-14T04:20:16;17.50;92.40
20446;DHT22;10382;49.140;9.234;2023-06-14T04:22:43;17.50;92.90
20446;DHT22;10382;49.140;9.234;2023-06-14T04:25:10;17.30;93.50
20446;DHT22;10382;49.140;9.234;2023-06-14T04:27:37;17.20;94.30
20446;DHT22;10382;49.140;9.234;2023-06-14T04:30:05;17.10;95.00
20446;DHT22;10382;49.140;9.234;2023-06-14T04:32:34;17.00;95.50
20446;DHT22;10382;49.140;9.234;2023-06-14T04:35:05;16.90;96.20
20446;DHT22;10382;49.140;9.234;2023-06-14T04:37:32;17.00;96.80
20446;DHT22;10382;49.140;9.234;2023-06-14T04:39:59;17.10;97.00
20446;DHT22;10382;49.140;9.234;2023-06-14T04:42:26;17.00;97.50
20446;DHT22;10382;49.140;9.234;2023-06-14T04:44:56;17.00;98.00
20446;DHT22;10382;49.140;9.234;2023-06-14T04:47:24;17.10;98.30
20446;DHT22;10382;49.140;9.234;2023-06-14T04:49:56;16.90;98.90
20446;DHT22;10382;49.140;9.234;2023-06-14T04:52:26;17.00;99.90
20446;DHT22;10382;49.140;9.234;2023-06-14T04:54:55;17.30;99.90
20446;DHT22;10382;49.140;9.234;2023-06-14T04:57:22;17.30;99.90
20446;DHT22;10382;49.140;9.234;2023-06-14T04:59:50;17.40;99.90
20446;DHT22;10382;49.140;9.234;2023-06-14T05:02:21;17.50;99.90
20446;DHT22;10382;49.140;9.234;2023-06-14T05:04:48;17.50;99.90
20446;DHT22;10382;49.140;9.234;2023-06-14T05:07:16;17.50;99.90
20446;DHT22;10382;49.140;9.234;2023-06-14T05:09:44;17.60;99.90
20446;DHT22;10382;49.140;9.234;2023-06-14T05:12:11;17.70;99.90
20446;DHT22;10382;49.140;9.234;2023-06-14T05:14:38;17.80;99.90
20446;DHT22;10382;49.140;9.234;2023-06-14T05:17:05;17.80;99.90
20446;DHT22;10382;49.140;9.234;2023-06-14T05:19:32;17.80;99.90
20446;DHT22;10382;49.140;9.234;2023-06-14T05:21:59;17.70;99.90
20446;DHT22;10382;49.140;9.234;2023-06-14T05:24:27;17.70;99.90
20446;DHT22;10382;49.140;9.234;2023-06-14T05:26:56;17.90;99.90
20446;DHT22;10382;49.140;9.234;2023-06-14T05:29:22;18.00;99.90
20446;DHT22;10382;49.140;9.234;2023-06-14T05:31:49;18.20;99.90
20446;DHT22;10382;49.140;9.234;2023-06-14T05:34:16;18.30;99.90
20446;DHT22;10382;49.140;9.234;2023-06-14T05:36:43;18.40;99.60
20446;DHT22;10382;49.140;9.234;2023-06-14T05:39:10;18.40;99.50
20446;DHT22;10382;49.140;9.234;2023-06-14T05:41:38;18.50;99.00
20446;DHT22;10382;49.140;9.234;2023-06-14T05:44:05;18.50;99.40
20446;DHT22;10382;49.140;9.234;2023-06-14T05:46:33;18.50;99.80
20446;DHT22;10382;49.140;9.234;2023-06-14T05:49:00;18.70;99.70
20446;DHT22;10382;49.140;9.234;2023-06-14T05:51:26;19.00;98.60
20446;DHT22;10382;49.140;9.234;2023-06-14T05:53:53;19.20;98.00
20446;DHT22;10382;49.140;9.234;2023-06-14T05:56:20;19.20;97.60
20446;DHT22;10382;49.140;9.234;2023-06-14T05:58:49;19.30;97.00
20446;DHT22;10382;49.140;9.234;2023-06-14T06:01:16;19.60;97.00
20446;DHT22;10382;49.140;9.234;2023-06-14T06:03:43;19.70;96.30
20446;DHT22;10382;49.140;9.234;2023-06-14T06:06:11;19.70;95.80
20446;DHT22;10382;49.140;9.234;2023-06-14T06:08:38;19.50;96.20
20446;DHT22;10382;49.140;9.234;2023-06-14T06:11:06;19.40;96.80
20446;DHT22;10382;49.140;9.234;2023-06-14T06:13:32;19.40;97.20
20446;DHT22;10382;49.140;9.234;2023-06-14T06:16:02;19.40;97.30
20446;DHT22;10382;49.140;9.234;2023-06-14T06:18:29;19.40;97.50
20446;DHT22;10382;49.140;9.234;2023-06-14T06:20:55;19.60;97.30
20446;DHT22;10382;49.140;9.234;2023-06-14T06:23:22;19.60;97.20
20446;DHT22;10382;49.140;9.234;2023-06-14T06:25:49;19.70;97.10
20446;DHT22;10382;49.140;9.234;2023-06-14T06:28:17;19.90;97.40
20446;DHT22;10382;49.140;9.234;2023-06-14T06:30:44;20.10;96.40
20446;DHT22;10382;49.140;9.234;2023-06-14T06:33:13;20.40;95.50
20446;DHT22;10382;49.140;9.234;2023-06-14T06:35:40;20.60;95.10
20446;DHT22;10382;49.140;9.234;2023-06-14T06:38:07;20.80;94.60
20446;DHT22;10382;49.140;9.234;2023-06-14T06:40:34;21.10;94.30
20446;DHT22;10382;49.140;9.234;2023-06-14T06:43:02;21.40;93.40
20446;DHT22;10382;49.140;9.234;2023-06-14T06:45:29;21.50;92.80
20446;DHT22;10382;49.140;9.234;2023-06-14T06:47:56;21.60;92.50
20446;DHT22;10382;49.140;9.234;2023-06-14T06:50:24;21.70;92.40
20446;DHT22;10382;49.140;9.234;2023-06-14T06:52:51;21.90;92.40
20446;DHT22;10382;49.140;9.234;2023-06-14T06:55:18;22.10;91.70
20446;DHT22;10382;49.140;9.234;2023-06-14T06:57:45;22.30;91.30
20446;DHT22;10382;49.140;9.234;2023-06-14T07:00:13;22.60;91.30
20446;DHT22;10382;49.140;9.234;2023-06-14T07:02:39;22.90;90.50
20446;DHT22;10382;49.140;9.234;2023-06-14T07:05:06;23.20;89.00
20446;DHT22;10382;49.140;9.234;2023-06-14T07:07:35;23.50;86.50
20446;DHT22;10382;49.140;9.234;2023-06-14T07:10:02;23.80;85.90
20446;DHT22;10382;49.140;9.234;2023-06-14T07:12:30;24.00;84.30
20446;DHT22;10382;49.140;9.234;2023-06-14T07:14:59;24.20;84.00
20446;DHT22;10382;49.140;9.234;2023-06-14T07:17:26;24.50;82.70
20446;DHT22;10382;49.140;9.234;2023-06-14T07:19:53;24.70;81.10
20446;DHT22;10382;49.140;9.234;2023-06-14T07:22:19;24.50;78.90
20446;DHT22;10382;49.140;9.234;2023-06-14T07:24:48;24.20;80.70
20446;DHT22;10382;49.140;9.234;2023-06-14T07:27:15;24.10;81.70
20446;DHT22;10382;49.140;9.234;2023-06-14T07:29:42;24.00;80.10
20446;DHT22;10382;49.140;9.234;2023-06-14T07:32:09;23.70;80.60
20446;DHT22;10382;49.140;9.234;2023-06-14T07:34:35;23.60;81.00
20446;DHT22;10382;49.140;9.234;2023-06-14T07:37:03;23.50;82.30
20446;DHT22;10382;49.140;9.234;2023-06-14T07:39:29;23.30;81.20
20446;DHT22;10382;49.140;9.234;2023-06-14T07:41:58;23.30;82.10
20446;DHT22;10382;49.140;9.234;2023-06-14T07:44:24;23.30;82.20
20446;DHT22;10382;49.140;9.234;2023-06-14T07:46:51;23.40;82.60
20446;DHT22;10382;49.140;9.234;2023-06-14T07:49:18;23.50;81.90
20446;DHT22;10382;49.140;9.234;2023-06-14T07:51:45;23.70;81.20
20446;DHT22;10382;49.140;9.234;2023-06-14T07:54:13;23.70;80.90
20446;DHT22;10382;49.140;9.234;2023-06-14T07:56:41;23.60;81.00
20446;DHT22;10382;49.140;9.234;2023-06-14T07:59:09;23.70;80.30
20446;DHT22;10382;49.140;9.234;2023-06-14T08:01:36;23.70;80.00
20446;DHT22;10382;49.140;9.234;2023-06-14T08:04:03;23.90;78.90
20446;DHT22;10382;49.140;9.234;2023-06-14T08:06:30;24.10;79.60
20446;DHT22;10382;49.140;9.234;2023-06-14T08:08:58;24.40;79.00
20446;DHT22;10382;49.140;9.234;2023-06-14T08:11:26;24.60;77.00
20446;DHT22;10382;49.140;9.234;2023-06-14T08:13:53;24.80;75.30
20446;DHT22;10382;49.140;9.234;2023-06-14T08:16:21;24.60;74.80
20446;DHT22;10382;49.140;9.234;2023-06-14T08:18:49;24.60;75.80
20446;DHT22;10382;49.140;9.234;2023-06-14T08:21:15;24.50;74.80
20446;DHT22;10382;49.140;9.234;2023-06-14T08:23:43;24.50;75.50
20446;DHT22;10382;49.140;9.234;2023-06-14T08:26:10;24.60;75.80
20446;DHT22;10382;49.140;9.234;2023-06-14T08:28:37;24.80;75.10
20446;DHT22;10382;49.140;9.234;2023-06-14T08:31:04;25.00;75.40
20446;DHT22;10382;49.140;9.234;2023-06-14T08:33:32;25.30;74.30
20446;DHT22;10382;49.140;9.234;2023-06-14T08:36:00;25.50;74.40
20446;DHT22;10382;49.140;9.234;2023-06-14T08:38:27;25.40;74.80
20446;DHT22;10382;49.140;9.234;2023-06-14T08:40:57;25.00;73.30
20446;DHT22;10382;49.140;9.234;2023-06-14T08:43:24;24.30;74.50
20446;DHT22;10382;49.140;9.234;2023-06-14T08:45:56;23.90;75.80
20446;DHT22;10382;49.140;9.234;2023-06-14T08:48:26;23.50;76.40
20446;DHT22;10382;49.140;9.234;2023-06-14T08:50:55;23.60;77.60
20446;DHT22;10382;49.140;9.234;2023-06-14T08:53:28;24.00;78.10
20446;DHT22;10382;49.140;9.234;2023-06-14T08:55:57;24.30;75.70
20446;DHT22;10382;49.140;9.234;2023-06-14T08:58:25;24.50;74.80
20446;DHT22;10382;49.140;9.234;2023-06-14T09:00:55;24.70;75.40
20446;DHT22;10382;49.140;9.234;2023-06-14T09:03:22;24.90;74.50
20446;DHT22;10382;49.140;9.234;2023-06-14T09:05:56;25.20;73.20
20446;DHT22;10382;49.140;9.234;2023-06-14T09:08:24;25.50;72.80
20446;DHT22;10382;49.140;9.234;2023-06-14T09:10:52;25.80;72.00
20446;DHT22;10382;49.140;9.234;2023-06-14T09:13:18;26.10;70.70
20446;DHT22;10382;49.140;9.234;2023-06-14T09:15:45;26.40;70.30
20446;DHT22;10382;49.140;9.234;2023-06-14T09:18:12;26.70;68.20
20446;DHT22;10382;49.140;9.234;2023-06-14T09:20:40;26.80;66.70
20446;DHT22;10382;49.140;9.234;2023-06-14T09:23:08;27.00;67.10
20446;DHT22;10382;49.140;9.234;2023-06-14T09:25:42;27.20;67.20
20446;DHT22;10382;49.140;9.234;2023-06-14T09:28:10;27.20;65.50
20446;DHT22;10382;49.140;9.234;2023-06-14T09:30:37;27.10;66.60
20446;DHT22;10382;49.140;9.234;2023-06-14T09:33:04;27.20;64.40
20446;DHT22;10382;49.140;9.234;2023-06-14T09:35:31;27.20;65.00
20446;DHT22;10382;49.140;9.234;2023-06-14T09:37:58;27.40;63.80
20446;DHT22;10382;49.140;9.234;2023-06-14T09:40:26;27.50;63.30
20446;DHT22;10382;49.140;9.234;2023-06-14T09:42:54;27.50;63.10
20446;DHT22;10382;49.140;9.234;2023-06-14T09:45:24;27.70;62.90
20446;DHT22;10382;49.140;9.234;2023-06-14T09:47:54;27.90;62.10
20446;DHT22;10382;49.140;9.234;2023-06-14T09:50:21;28.20;60.50
20446;DHT22;10382;49.140;9.234;2023-06-14T09:52:49;28.10;60.30
20446;DHT22;10382;49.140;9.234;2023-06-14T09:55:19;28.20;60.60
20446;DHT22;10382;49.140;9.234;2023-06-14T09:57:50;28.10;59.10
20446;DHT22;10382;49.140;9.234;2023-06-14T10:00:18;27.60;57.50
20446;DHT22;10382;49.140;9.234;2023-06-14T10:02:49;27.40;58.40
20446;DHT22;10382;49.140;9.234;2023-06-14T10:05:20;27.40;59.30
20446;DHT22;10382;49.140;9.234;2023-06-14T10:07:52;27.50;59.80
20446;DHT22;10382;49.140;9.234;2023-06-14T10:10:19;27.70;57.90
20446;DHT22;10382;49.140;9.234;2023-06-14T10:12:48;27.50;57.60
20446;DHT22;10382;49.140;9.234;2023-06-14T10:15:18;27.10;57.80
20446;DHT22;10382;49.140;9.234;2023-06-14T10:17:48;26.90;58.50
20446;DHT22;10382;49.140;9.234;2023-06-14T10:20:26;26.30;59.80
20446;DHT22;10382;49.140;9.234;2023-06-14T10:23:00;26.10;59.60
20446;DHT22;10382;49.140;9.234;2023-06-14T10:25:29;26.00;60.40
20446;DHT22;10382;49.140;9.234;2023-06-14T10:28:14;26.10;59.70
20446;DHT22;10382;49.140;9.234;2023-06-14T10:31:04;26.50;58.80
20446;DHT22;10382;49.140;9.234;2023-06-14T10:33:32;26.60;59.10
20446;DHT22;10382;49.140;9.234;2023-06-14T10:36:26;26.40;59.30
20446;DHT22;10382;49.140;9.234;2023-06-14T10:39:10;26.30;59.00
20446;DHT22;10382;49.140;9.234;2023-06-14T10:41:39;26.50;57.50
20446;DHT22;10382;49.140;9.234;2023-06-14T10:44:42;26.80;57.90
20446;DHT22;10382;49.140;9.234;2023-06-14T10:47:29;27.30;56.60
20446;DHT22;10382;49.140;9.234;2023-06-14T10:49:58;27.40;55.80
20446;DHT22;10382;49.140;9.234;2023-06-14T10:52:32;27.70;56.00
20446;DHT22;10382;49.140;9.234;2023-06-14T10:55:09;27.90;54.50
20446;DHT22;10382;49.140;9.234;2023-06-14T10:57:38;26.70;55.00
20446;DHT22;10382;49.140;9.234;2023-06-14T11:00:08;26.50;55.50
20446;DHT22;10382;49.140;9.234;2023-06-14T11:02:53;26.50;56.30
20446;DHT22;10382;49.140;9.234;2023-06-14T11:05:24;26.80;55.50
20446;DHT22;10382;49.140;9.234;2023-06-14T11:08:15;27.10;54.40
20446;DHT22;10382;49.140;9.234;2023-06-14T11:10:45;27.40;55.40
20446;DHT22;10382;49.140;9.234;2023-06-14T11:13:12;27.50;53.30
20446;DHT22;10382;49.140;9.234;2023-06-14T11:15:47;28.00;54.70
20446;DHT22;10382;49.140;9.234;2023-06-14T11:18:15;28.40;55.10
20446;DHT22;10382;49.140;9.234;2023-06-14T11:20:46;28.80;55.20
20446;DHT22;10382;49.140;9.234;2023-06-14T11:23:13;29.30;52.80
20446;DHT22;10382;49.140;9.234;2023-06-14T11:25:40;29.50;53.10
20446;DHT22;10382;49.140;9.234;2023-06-14T11:28:07;30.00;52.80
20446;DHT22;10382;49.140;9.234;2023-06-14T11:30:34;30.20;50.70
20446;DHT22;10382;49.140;9.234;2023-06-14T11:33:02;30.50;50.80
20446;DHT22;10382;49.140;9.234;2023-06-14T11:35:29;30.60;50.10
20446;DHT22;10382;49.140;9.234;2023-06-14T11:37:57;30.70;50.20
20446;DHT22;10382;49.140;9.234;2023-06-14T11:40:24;30.80;49.80
20446;DHT22;10382;49.140;9.234;2023-06-14T11:42:58;30.70;50.50
20446;DHT22;10382;49.140;9.234;2023-06-14T11:45:26;30.80;50.70
20446;DHT22;10382;49.140;9.234;2023-06-14T11:47:55;30.90;48.40
20446;DHT22;10382;49.140;9.234;2023-06-14T11:50:25;30.00;49.10
20446;DHT22;10382;49.140;9.234;2023-06-14T11:52:56;30.20;49.60
20446;DHT22;10382;49.140;9.234;2023-06-14T11:55:23;30.30;48.60
20446;DHT22;10382;49.140;9.234;2023-06-14T11:57:51;30.70;48.80
20446;DHT22;10382;49.140;9.234;2023-06-14T12:00:18;31.00;47.60
20446;DHT22;10382;49.140;9.234;2023-06-14T12:02:53;31.40;47.20
20446;DHT22;10382;49.140;9.234;2023-06-14T12:05:21;31.80;46.60
20446;DHT22;10382;49.140;9.234;2023-06-14T12:07:50;32.00;45.80
20446;DHT22;10382;49.140;9.234;2023-06-14T12:10:19;32.30;45.00
20446;DHT22;10382;49.140;9.234;2023-06-14T12:12:46;32.70;44.30
20446;DHT22;10382;49.140;9.234;2023-06-14T12:15:12;32.90;43.80
20446;DHT22;10382;49.140;9.234;2023-06-14T12:17:39;32.80;44.40
20446;DHT22;10382;49.140;9.234;2023-06-14T12:20:10;32.30;45.20
20446;DHT22;10382;49.140;9.234;2023-06-14T12:22:39;31.50;44.80
20446;DHT22;10382;49.140;9.234;2023-06-14T12:25:23;31.30;45.30
20446;DHT22;10382;49.140;9.234;2023-06-14T12:27:52;30.60;47.00
20446;DHT22;10382;49.140;9.234;2023-06-14T12:30:19;30.60;46.50
20446;DHT22;10382;49.140;9.234;2023-06-14T12:32:46;30.70;46.90
20446;DHT22;10382;49.140;9.234;2023-06-14T12:35:13;31.10;47.50
20446;DHT22;10382;49.140;9.234;2023-06-14T12:37:41;31.40;46.70
20446;DHT22;10382;49.140;9.234;2023-06-14T12:40:08;31.70;45.80
20446;DHT22;10382;49.140;9.234;2023-06-14T12:42:38;31.90;44.70
20446;DHT22;10382;49.140;9.234;2023-06-14T12:45:06;31.90;44.50
20446;DHT22;10382;49.140;9.234;2023-06-14T12:47:33;32.00;44.10
20446;DHT22;10382;49.140;9.234;2023-06-14T12:49:59;31.90;44.60
20446;DHT22;10382;49.140;9.234;2023-06-14T12:52:26;31.10;45.90
20446;DHT22;10382;49.140;9.234;2023-06-14T12:54:53;30.50;46.50
20446;DHT22;10382;49.140;9.234;2023-06-14T12:57:20;29.90;47.10
20446;DHT22;10382;49.140;9.234;2023-06-14T12:59:48;29.70;47.60
20446;DHT22;10382;49.140;9.234;2023-06-14T13:02:17;28.60;48.40
20446;DHT22;10382;49.140;9.234;2023-06-14T13:04:44;27.80;49.10
20446;DHT22;10382;49.140;9.234;2023-06-14T13:07:11;27.70;50.20
20446;DHT22;10382;49.140;9.234;2023-06-14T13:09:40;27.20;50.50
20446;DHT22;10382;49.140;9.234;2023-06-14T13:12:10;27.10;51.10
20446;DHT22;10382;49.140;9.234;2023-06-14T13:14:38;27.30;50.40
20446;DHT22;10382;49.140;9.234;2023-06-14T13:17:08;27.60;50.50
20446;DHT22;10382;49.140;9.234;2023-06-14T13:19:35;28.00;50.50
20446;DHT22;10382;49.140;9.234;2023-06-14T13:22:02;28.50;49.90
20446;DHT22;10382;49.140;9.234;2023-06-14T13:24:29;29.00;48.80
20446;DHT22;10382;49.140;9.234;2023-06-14T13:26:56;29.30;48.50
20446;DHT22;10382;49.140;9.234;2023-06-14T13:29:23;29.60;47.90
20446;DHT22;10382;49.140;9.234;2023-06-14T13:31:50;29.80;48.00
20446;DHT22;10382;49.140;9.234;2023-06-14T13:34:18;29.70;46.60
20446;DHT22;10382;49.140;9.234;2023-06-14T13:36:45;29.40;46.70
20446;DHT22;10382;49.140;9.234;2023-06-14T13:39:12;28.90;47.50
20446;DHT22;10382;49.140;9.234;2023-06-14T13:41:39;29.20;48.50
20446;DHT22;10382;49.140;9.234;2023-06-14T13:44:06;29.50;49.50
20446;DHT22;10382;49.140;9.234;2023-06-14T13:46:33;30.00;48.60
20446;DHT22;10382;49.140;9.234;2023-06-14T13:49:00;30.40;48.50
20446;DHT22;10382;49.140;9.234;2023-06-14T13:51:28;30.80;47.40
20446;DHT22;10382;49.140;9.234;2023-06-14T13:53:55;31.00;47.70
20446;DHT22;10382;49.140;9.234;2023-06-14T13:56:22;31.20;46.70
20446;DHT22;10382;49.140;9.234;2023-06-14T13:58:50;31.40;47.30
20446;DHT22;10382;49.140;9.234;2023-06-14T14:01:17;31.70;46.70
20446;DHT22;10382;49.140;9.234;2023-06-14T14:03:45;31.80;46.50
20446;DHT22;10382;49.140;9.234;2023-06-14T14:06:13;31.80;45.80
20446;DHT22;10382;49.140;9.234;2023-06-14T14:08:41;31.70;45.50
20446;DHT22;10382;49.140;9.234;2023-06-14T14:11:09;30.80;45.20
20446;DHT22;10382;49.140;9.234;2023-06-14T14:13:36;30.20;46.10
20446;DHT22;10382;49.140;9.234;2023-06-14T14:16:04;29.80;46.70
20446;DHT22;10382;49.140;9.234;2023-06-14T14:18:31;29.60;46.70
20446;DHT22;10382;49.140;9.234;2023-06-14T14:20:59;29.40;46.70
20446;DHT22;10382;49.140;9.234;2023-06-14T14:23:26;29.40;47.50
20446;DHT22;10382;49.140;9.234;2023-06-14T14:25:54;29.50;47.60
20446;DHT22;10382;49.140;9.234;2023-06-14T14:28:22;29.80;47.20
20446;DHT22;10382;49.140;9.234;2023-06-14T14:30:49;29.80;46.70
20446;DHT22;10382;49.140;9.234;2023-06-14T14:33:16;29.60;46.40
20446;DHT22;10382;49.140;9.234;2023-06-14T14:35:44;29.60;46.30
20446;DHT22;10382;49.140;9.234;2023-06-14T14:38:11;29.50;46.80
20446;DHT22;10382;49.140;9.234;2023-06-14T14:40:39;29.50;47.10
20446;DHT22;10382;49.140;9.234;2023-06-14T14:43:07;29.70;47.60
20446;DHT22;10382;49.140;9.234;2023-06-14T14:45:34;29.90;46.60
20446;DHT22;10382;49.140;9.234;2023-06-14T14:48:01;30.20;46.50
20446;DHT22;10382;49.140;9.234;2023-06-14T14:50:28;30.50;46.50
20446;DHT22;10382;49.140;9.234;2023-06-14T14:52:55;30.80;46.50
20446;DHT22;10382;49.140;9.234;2023-06-14T14:55:22;31.00;46.10
20446;DHT22;10382;49.140;9.234;2023-06-14T14:57:49;31.10;45.80
20446;DHT22;10382;49.140;9.234;2023-06-14T15:00:18;31.20;45.70
20446;DHT22;10382;49.140;9.234;2023-06-14T15:02:44;31.50;45.60
20446;DHT22;10382;49.140;9.234;2023-06-14T15:05:11;31.80;45.10
20446;DHT22;10382;49.140;9.234;2023-06-14T15:07:38;31.90;44.20
20446;DHT22;10382;49.140;9.234;2023-06-14T15:10:07;31.90;44.50
20446;DHT22;10382;49.140;9.234;2023-06-14T15:12:34;31.80;44.40
20446;DHT22;10382;49.140;9.234;2023-06-14T15:15:02;31.80;44.70
20446;DHT22;10382;49.140;9.234;2023-06-14T15:17:30;31.20;44.80
20446;DHT22;10382;49.140;9.234;2023-06-14T15:19:57;31.00;44.20
20446;DHT22;10382;49.140;9.234;2023-06-14T15:22:24;30.60;45.40
20446;DHT22;10382;49.140;9.234;2023-06-14T15:24:51;30.20;46.40
20446;DHT22;10382;49.140;9.234;2023-06-14T15:27:18;30.00;46.70
20446;DHT22;10382;49.140;9.234;2023-06-14T15:29:46;29.70;46.80
20446;DHT22;10382;49.140;9.234;2023-06-14T15:32:13;28.90;47.50
20446;DHT22;10382;49.140;9.234;2023-06-14T15:34:41;28.50;48.70
20446;DHT22;10382;49.140;9.234;2023-06-14T15:37:08;28.00;49.50